Time;durP1;ratioP1;P1;durP2;ratioP2;P2;SDS_P1;SDS_P2;PMS_P1;PMS_P2;Temp;Humidity;BMP_temperature;BMP_pressure;BME280_temperature;BME280_humidity;BME280_pressure;Samples;Min_cycle;Max_cycle;Signal;HPM_P1;HPM_P2
2023/03/25 00:00:47;;;;;;;;;;;;;;;16.79;48.05;100636.47;4997859;28;1157;-53
2023/03/25 00:03:13;;;;;;;;;;;;;;;16.91;48.09;100633.44;4997786;28;1109;-54
2023/03/25 00:05:39;;;;;;;;;;;;;;;16.57;48.26;100637.59;4997834;28;1144;-51
2023/03/25 00:08:05;;;;;;;;;;;;;;;18.29;46.30;100636.53;4998188;28;1052;-52
2023/03/25 00:10:30;;;;;;;;;;;;;;;16.89;48.46;100632.91;4998511;28;1207;-51
2023/03/25 00:12:57;;;;;;;;;;;;;;;16.62;47.45;100631.31;4997656;28;1099;-54
2023/03/25 00:15:22;;;;;;;;;;;;;;;16.35;47.12;100629.66;4998199;28;1151;-51
2023/03/25 00:17:48;;;;;;;;;;;;;;;16.25;46.24;100625.00;4997631;28;1975;-53
2023/03/25 00:20:13;;;;;;;;;;;;;;;16.38;46.85;100620.91;4997990;28;1191;-54
2023/03/25 00:22:40;;;;;;;;;;;;;;;16.68;48.09;100621.94;4997843;28;1044;-53
2023/03/25 00:25:09;;;;;;;;;;;;;;;16.28;47.80;100617.34;4997705;28;1500;-51
2023/03/25 00:27:35;;;;;;;;;;;;;;;17.91;47.06;100622.53;4997754;28;1085;-53
2023/03/25 00:30:01;;;;;;;;;;;;;;;16.74;48.65;100612.59;4997469;28;1235;-53
2023/03/25 00:32:28;;;;;;;;;;;;;;;16.37;47.82;100619.25;4997554;28;1104;-53
2023/03/25 00:34:54;;;;;;;;;;;;;;;16.30;46.57;100613.22;4997659;28;1223;-51
2023/03/25 00:37:20;;;;;;;;;;;;;;;16.66;47.63;100607.69;4996109;28;1910;-54
2023/03/25 00:39:46;;;;;;;;;;;;;;;16.50;47.76;100611.56;4997542;28;1124;-52
2023/03/25 00:42:14;;;;;;;;;;;;;;;16.18;47.46;100604.44;4996790;28;890;-52
2023/03/25 00:44:40;;;;;;;;;;;;;;;17.44;47.32;100600.78;4996348;28;1277;-55
2023/03/25 00:47:05;;;;;;;;;;;;;;;16.45;48.24;100597.84;4997436;28;1137;-54
2023/03/25 00:49:31;;;;;;;;;;;;;;;17.04;47.92;100594.41;4997171;28;1044;-54
2023/03/25 00:51:56;;;;;;;;;;;;;;;16.99;48.16;100590.88;4997560;28;1219;-53
2023/03/25 00:54:22;;;;;;;;;;;;;;;16.42;48.25;100599.22;4997045;28;1021;-54
2023/03/25 00:56:48;;;;;;;;;;;;;;;16.35;47.08;100594.00;4997190;28;1177;-53
2023/03/25 00:59:14;;;;;;;;;;;;;;;16.16;46.43;100598.41;4996033;28;1914;-54
2023/03/25 01:01:39;;;;;;;;;;;;;;;16.77;47.75;100587.34;4997340;28;1180;-54
2023/03/25 01:04:10;;;;;;;;;;;;;;;16.28;47.73;100582.47;4995714;28;1101;-54
2023/03/25 01:06:36;;;;;;;;;;;;;;;17.81;47.04;100582.16;4995564;28;1010;-52
2023/03/25 01:09:04;;;;;;;;;;;;;;;16.99;48.09;100572.44;5028993;28;1092;-52
2023/03/25 01:11:33;;;;;;;;;;;;;;;16.51;47.84;100569.25;4997106;28;1124;-55
2023/03/25 01:13:59;;;;;;;;;;;;;;;16.50;48.09;100573.13;4995834;28;1363;-54
2023/03/25 01:16:25;;;;;;;;;;;;;;;17.01;48.12;100563.91;4997134;28;1048;-53
2023/03/25 01:18:50;;;;;;;;;;;;;;;16.41;48.01;100559.97;4996471;28;1976;-52
2023/03/25 01:21:17;;;;;;;;;;;;;;;16.21;47.25;100562.75;4997022;28;1060;-53
2023/03/25 01:23:42;;;;;;;;;;;;;;;17.18;47.62;100560.81;4995650;28;1188;-51
2023/03/25 01:26:08;;;;;;;;;;;;;;;16.67;48.14;100546.16;4995604;28;1284;-54
2023/03/25 01:28:33;;;;;;;;;;;;;;;17.74;47.27;100551.38;4997207;28;1151;-53
2023/03/25 01:31:00;;;;;;;;;;;;;;;18.19;46.73;100543.88;4996692;28;861;-53
2023/03/25 01:33:26;;;;;;;;;;;;;;;17.00;48.20;100541.13;4996974;28;1037;-54
2023/03/25 01:35:51;;;;;;;;;;;;;;;16.73;47.42;100542.31;4996989;28;1052;-54
2023/03/25 01:38:17;;;;;;;;;;;;;;;16.47;47.03;100549.81;4996753;28;1984;-53
2023/03/25 01:40:44;;;;;;;;;;;;;;;17.23;47.80;100553.34;4996972;28;1172;-51
2023/03/25 01:43:12;;;;;;;;;;;;;;;16.49;48.18;100544.03;4996589;28;1092;-55
2023/03/25 01:45:38;;;;;;;;;;;;;;;16.38;47.18;100544.06;4996525;28;1249;-52
2023/03/25 01:48:04;;;;;;;;;;;;;;;16.28;46.62;100543.25;4996973;28;1025;-54
2023/03/25 01:50:31;;;;;;;;;;;;;;;16.57;47.11;100541.53;4995624;28;1192;-52
2023/03/25 01:52:57;;;;;;;;;;;;;;;16.90;48.18;100546.66;4996670;28;1002;-48
2023/03/25 01:55:23;;;;;;;;;;;;;;;16.45;47.75;100542.94;4997555;28;858;-49
2023/03/25 01:57:49;;;;;;;;;;;;;;;16.37;48.17;100542.41;4999380;28;1918;-51
2023/03/25 02:00:15;;;;;;;;;;;;;;;17.02;48.01;100547.16;4982884;28;1069;-51
2023/03/25 02:02:40;;;;;;;;;;;;;;;16.37;48.26;100542.41;4998898;28;1068;-51
2023/03/25 02:05:25;;;;;;;;;;;;;;;16.24;47.44;100537.50;5031851;28;1024;-53
2023/03/25 02:07:51;;;;;;;;;;;;;;;16.11;46.37;100532.59;4988086;28;953;-52
2023/03/25 02:10:17;;;;;;;;;;;;;;;16.01;46.22;100528.75;4998941;28;1167;-51
2023/03/25 02:12:44;;;;;;;;;;;;;;;17.28;47.43;100534.09;5000647;28;1207;-51
2023/03/25 02:15:10;;;;;;;;;;;;;;;16.38;48.35;100529.50;4998888;28;1308;-51
2023/03/25 02:17:46;;;;;;;;;;;;;;;16.18;47.49;100530.38;5031154;28;1910;-53
2023/03/25 02:20:35;;;;;;;;;;;;;;;16.71;47.74;100530.78;4998776;28;1108;-53
2023/03/25 02:23:13;;;;;;;;;;;;;;;16.77;48.37;100526.09;5000443;28;1069;-52
2023/03/25 02:25:44;;;;;;;;;;;;;;;17.82;47.33;100530.69;4999351;28;1475;-54
2023/03/25 02:28:24;;;;;;;;;;;;;;;16.80;48.31;100528.25;5000097;28;1168;-54
2023/03/25 02:30:58;;;;;;;;;;;;;;;17.14;48.62;100527.59;4998399;28;1396;-54
2023/03/25 02:33:32;;;;;;;;;;;;;;;16.69;48.60;100530.25;4998740;28;1153;-54
2023/03/25 02:36:04;;;;;;;;;;;;;;;16.40;47.82;100535.56;5000248;28;1084;-54
2023/03/25 02:38:35;;;;;;;;;;;;;;;17.16;48.19;100525.38;4998673;28;1902;-53
2023/03/25 02:41:19;;;;;;;;;;;;;;;16.45;48.13;100515.50;4998606;28;1174;-53
2023/03/25 02:43:47;;;;;;;;;;;;;;;16.26;47.38;100524.34;4996797;28;1021;-54
2023/03/25 02:46:14;;;;;;;;;;;;;;;17.44;47.41;100512.81;4999467;28;1142;-54
2023/03/25 02:48:42;;;;;;;;;;;;;;;16.54;48.34;100508.34;5014844;28;1214;-54
2023/03/25 02:51:09;;;;;;;;;;;;;;;16.25;47.84;100501.53;4999462;28;1060;-54
2023/03/25 02:53:35;;;;;;;;;;;;;;;16.17;47.27;100504.03;5014361;28;1841;-54
2023/03/25 02:56:02;;;;;;;;;;;;;;;16.89;47.97;100506.59;5000869;28;1248;-54
2023/03/25 02:58:28;;;;;;;;;;;;;;;16.33;47.77;100500.16;5014494;28;1918;-54
2023/03/25 03:00:57;;;;;;;;;;;;;;;16.14;47.15;100499.13;4997892;28;1084;-51
2023/03/25 03:03:23;;;;;;;;;;;;;;;16.70;47.62;100503.59;5030364;28;1224;-54
2023/03/25 03:05:49;;;;;;;;;;;;;;;16.32;48.05;100501.25;4998222;28;1147;-51
2023/03/25 03:08:17;;;;;;;;;;;;;;;17.22;47.52;100509.69;5029597;28;1332;-53
2023/03/25 03:11:05;;;;;;;;;;;;;;;17.68;47.16;100506.59;4999150;28;1251;-53
2023/03/25 03:13:54;;;;;;;;;;;;;;;16.65;48.22;100503.63;5030507;28;1148;-53
2023/03/25 03:16:23;;;;;;;;;;;;;;;16.38;47.27;100489.19;4997695;28;1173;-53
2023/03/25 03:19:13;;;;;;;;;;;;;;;16.18;46.50;100481.00;4998422;28;1910;-52
2023/03/25 03:21:38;;;;;;;;;;;;;;;16.98;48.09;100480.16;4998918;28;1099;-51
2023/03/25 03:24:04;;;;;;;;;;;;;;;16.65;48.60;100482.50;4998544;28;1127;-52
2023/03/25 03:26:42;;;;;;;;;;;;;;;18.34;46.37;100467.75;4998787;28;1142;-52
2023/03/25 03:29:08;;;;;;;;;;;;;;;17.13;48.26;100472.94;4999015;28;1216;-51
2023/03/25 03:31:35;;;;;;;;;;;;;;;16.54;48.50;100480.91;4998790;28;1096;-52
2023/03/25 03:34:04;;;;;;;;;;;;;;;16.48;47.48;100482.00;5030461;28;1040;-52
2023/03/25 03:36:31;;;;;;;;;;;;;;;16.23;47.15;100470.84;4998669;28;1084;-54
2023/03/25 03:39:08;;;;;;;;;;;;;;;16.77;48.18;100480.25;5029827;28;1902;-55
2023/03/25 03:41:34;;;;;;;;;;;;;;;16.74;48.53;100480.78;4998798;28;1048;-50
2023/03/25 03:44:01;;;;;;;;;;;;;;;16.38;47.75;100464.50;4998232;28;1812;-52
2023/03/25 03:46:50;;;;;;;;;;;;;;;17.65;47.69;100462.38;5030096;28;1170;-50
2023/03/25 03:49:17;;;;;;;;;;;;;;;16.50;48.73;100466.09;5016711;28;1123;-43
2023/03/25 03:51:45;;;;;;;;;;;;;;;16.37;47.61;100468.31;4998405;28;1083;-48
2023/03/25 03:54:12;;;;;;;;;;;;;;;16.16;47.39;100472.22;4997679;28;1428;-46
2023/03/25 03:56:40;;;;;;;;;;;;;;;17.11;47.63;100473.22;5021808;28;1166;-48
2023/03/25 03:59:28;;;;;;;;;;;;;;;16.34;48.28;100463.41;4984789;28;1906;-43
2023/03/25 04:01:55;;;;;;;;;;;;;;;16.23;46.91;100462.59;4986942;28;1691;-47
2023/03/25 04:04:22;;;;;;;;;;;;;;;17.49;47.19;100467.16;4997842;28;1168;-49
2023/03/25 04:07:00;;;;;;;;;;;;;;;16.51;48.38;100464.97;4996776;28;1125;-46
2023/03/25 04:09:33;;;;;;;;;;;;;;;16.24;47.55;100466.16;4996706;28;1120;-47
2023/03/25 04:12:02;;;;;;;;;;;;;;;17.40;47.49;100466.97;4998188;28;1174;-46
2023/03/25 04:14:28;;;;;;;;;;;;;;;16.49;48.07;100467.19;5029472;28;1156;-49
2023/03/25 04:16:53;;;;;;;;;;;;;;;16.29;47.26;100474.38;4997632;28;1192;-46
2023/03/25 04:19:19;;;;;;;;;;;;;;;16.06;47.08;100471.16;4996478;28;1899;-49
2023/03/25 04:21:46;;;;;;;;;;;;;;;16.52;47.51;100478.44;4997918;28;1075;-49
2023/03/25 04:24:15;;;;;;;;;;;;;;;16.50;47.92;100479.81;4997585;28;1052;-51
2023/03/25 04:26:42;;;;;;;;;;;;;;;16.20;47.41;100487.03;4997849;28;1147;-48
2023/03/25 04:29:08;;;;;;;;;;;;;;;17.32;47.18;100484.06;4996944;28;1040;-51
2023/03/25 04:31:33;;;;;;;;;;;;;;;16.41;48.26;100480.38;4997467;28;1151;-54
2023/03/25 04:33:59;;;;;;;;;;;;;;;16.12;47.42;100471.13;4998048;28;1367;-51
2023/03/25 04:36:27;;;;;;;;;;;;;;;16.13;46.66;100464.53;4997749;28;1160;-53
2023/03/25 04:38:54;;;;;;;;;;;;;;;17.39;47.17;100479.06;4997376;28;1969;-48
2023/03/25 04:41:20;;;;;;;;;;;;;;;16.38;48.23;100466.41;4997553;28;1144;-53
2023/03/25 04:43:46;;;;;;;;;;;;;;;16.12;47.42;100468.38;4997140;28;891;-49
2023/03/25 04:46:12;;;;;;;;;;;;;;;16.02;46.93;100464.59;4997338;28;1067;-49
2023/03/25 04:48:40;;;;;;;;;;;;;;;16.41;47.60;100461.19;5019927;28;1200;-53
2023/03/25 04:51:09;;;;;;;;;;;;;;;16.40;48.14;100458.72;4992652;28;1182;-46
2023/03/25 04:53:34;;;;;;;;;;;;;;;16.98;47.63;100463.66;4996865;28;1156;-51
2023/03/25 04:56:00;;;;;;;;;;;;;;;17.89;46.78;100462.41;4996460;28;984;-54
2023/03/25 04:58:25;;;;;;;;;;;;;;;16.63;48.75;100459.16;4996919;28;1971;-49
2023/03/25 05:00:51;;;;;;;;;;;;;;;16.40;47.71;100459.53;4997300;28;1123;-48
2023/03/25 05:03:22;;;;;;;;;;;;;;;16.21;47.08;100467.53;4997466;28;1289;-51
2023/03/25 05:05:48;;;;;;;;;;;;;;;16.77;47.85;100460.19;4997433;28;1172;-50
2023/03/25 05:08:14;;;;;;;;;;;;;;;16.42;48.47;100454.59;4996835;28;884;-46
2023/03/25 05:10:42;;;;;;;;;;;;;;;16.19;47.59;100456.03;5028371;28;1242;-51
2023/03/25 05:13:07;;;;;;;;;;;;;;;17.40;47.43;100464.22;4997170;28;1041;-45
2023/03/25 05:15:39;;;;;;;;;;;;;;;16.52;48.35;100453.75;4997063;28;1127;-48
2023/03/25 05:18:08;;;;;;;;;;;;;;;16.56;48.13;100457.56;4997047;28;1906;-45
2023/03/25 05:20:36;;;;;;;;;;;;;;;16.63;48.57;100459.16;4996867;28;1060;-49
2023/03/25 05:23:03;;;;;;;;;;;;;;;16.56;48.47;100462.22;4997139;28;1183;-50
2023/03/25 05:25:32;;;;;;;;;;;;;;;17.99;46.85;100465.09;4996594;28;1044;-49
2023/03/25 05:27:58;;;;;;;;;;;;;;;16.65;48.82;100466.03;4997365;28;1036;-51
2023/03/25 05:30:31;;;;;;;;;;;;;;;17.34;48.30;100463.44;4998054;28;1043;-51
2023/03/25 05:32:58;;;;;;;;;;;;;;;17.30;48.21;100469.81;5000377;28;958;-52
2023/03/25 05:35:25;;;;;;;;;;;;;;;16.62;48.49;100465.75;5001407;28;902;-50
2023/03/25 05:37:51;;;;;;;;;;;;;;;16.47;47.53;100475.72;5000722;28;1911;-51
2023/03/25 05:40:17;;;;;;;;;;;;;;;16.18;47.02;100470.03;5000413;28;1195;-52
2023/03/25 05:42:47;;;;;;;;;;;;;;;16.81;47.87;100474.19;5000740;28;1104;-52
2023/03/25 05:45:16;;;;;;;;;;;;;;;16.85;48.39;100481.56;5000537;28;1025;-53
2023/03/25 05:47:41;;;;;;;;;;;;;;;16.42;48.09;100479.28;5000533;28;1161;-49
2023/03/25 05:50:07;;;;;;;;;;;;;;;16.19;47.25;100485.41;4999251;28;1314;-50
2023/03/25 05:52:33;;;;;;;;;;;;;;;17.44;47.39;100470.78;5000625;28;1191;-49
2023/03/25 05:54:58;;;;;;;;;;;;;;;16.50;48.51;100472.38;5000812;28;1080;-49
2023/03/25 05:57:24;;;;;;;;;;;;;;;16.25;47.60;100467.81;5000124;28;1977;-49
2023/03/25 05:59:50;;;;;;;;;;;;;;;16.15;47.16;100457.69;5000515;28;1111;-47
2023/03/25 06:02:15;;;;;;;;;;;;;;;17.19;47.49;100455.31;5000832;28;1105;-52
2023/03/25 06:04:41;;;;;;;;;;;;;;;16.40;48.17;100454.03;5000562;28;1133;-47
2023/03/25 06:07:28;;;;;;;;;;;;;;;16.13;47.65;100453.56;5000142;28;1056;-51
2023/03/25 06:09:53;;;;;;;;;;;;;;;16.71;46.73;100461.34;5000039;28;1612;-49
2023/03/25 06:12:19;;;;;;;;;;;;;;;16.97;46.22;100447.47;4999219;28;1107;-49
2023/03/25 06:14:47;;;;;;;;;;;;;;;16.51;47.63;100451.25;5000067;28;1149;-48
2023/03/25 06:17:14;;;;;;;;;;;;;;;16.28;48.20;100449.97;4999273;28;1974;-47
2023/03/25 06:19:39;;;;;;;;;;;;;;;16.10;48.73;100440.44;5000160;28;1097;-46
2023/03/25 06:22:08;;;;;;;;;;;;;;;15.99;49.10;100442.34;4998248;28;1112;-52
2023/03/25 06:24:36;;;;;;;;;;;;;;;15.87;49.68;100440.75;4999563;28;1175;-47
2023/03/25 06:27:02;;;;;;;;;;;;;;;15.75;49.95;100437.44;4999761;28;1141;-49
2023/03/25 06:29:28;;;;;;;;;;;;;;;15.65;50.32;100438.25;4999876;28;1060;-46
2023/03/25 06:31:53;;;;;;;;;;;;;;;15.55;50.65;100447.31;4999035;28;1199;-50
2023/03/25 06:34:19;;;;;;;;;;;;;;;15.51;50.70;100445.41;4999524;28;1159;-48
2023/03/25 06:36:48;;;;;;;;;;;;;;;15.39;50.73;100456.66;4999059;28;1080;-48
2023/03/25 06:39:15;;;;;;;;;;;;;;;15.30;51.20;100445.41;4995190;28;1906;-47
2023/03/25 06:41:40;;;;;;;;;;;;;;;16.42;48.54;100446.38;4997953;28;1271;-47
2023/03/25 06:44:15;;;;;;;;;;;;;;;16.64;47.73;100447.09;4997704;28;1500;-49
2023/03/25 06:46:44;;;;;;;;;;;;;;;16.02;49.83;100456.34;4999457;28;1020;-48
2023/03/25 06:49:15;;;;;;;;;;;;;;;15.71;50.26;100448.16;5002950;28;1200;-48
2023/03/25 06:51:42;;;;;;;;;;;;;;;15.54;50.82;100447.59;4999294;28;1049;-44
2023/03/25 06:54:07;;;;;;;;;;;;;;;15.44;51.29;100466.78;4998954;28;1120;-46
2023/03/25 06:56:33;;;;;;;;;;;;;;;15.33;51.32;100461.31;4988432;28;1125;-46
2023/03/25 06:58:58;;;;;;;;;;;;;;;16.33;49.39;100455.47;4998331;28;1914;-45
2023/03/25 07:01:24;;;;;;;;;;;;;;;16.86;47.78;100455.75;4998718;28;1133;-44
2023/03/25 07:03:49;;;;;;;;;;;;;;;15.99;49.95;100459.66;4998883;28;1112;-44
2023/03/25 07:06:16;;;;;;;;;;;;;;;15.74;50.77;100461.28;4998484;28;1242;-46
2023/03/25 07:08:41;;;;;;;;;;;;;;;15.60;51.12;100464.84;4998364;28;1044;-43
2023/03/25 07:11:06;;;;;;;;;;;;;;;15.44;51.30;100461.31;4998592;28;1264;-47
2023/03/25 07:13:32;;;;;;;;;;;;;;;15.56;51.22;100456.38;4998271;28;955;-46
2023/03/25 07:15:58;;;;;;;;;;;;;;;17.06;47.51;100452.09;4998656;28;1172;-48
2023/03/25 07:18:23;;;;;;;;;;;;;;;16.31;49.34;100450.22;4998310;28;1906;-47
2023/03/25 07:20:49;;;;;;;;;;;;;;;15.86;50.64;100454.72;4998394;28;1212;-46
2023/03/25 07:23:14;;;;;;;;;;;;;;;15.63;51.02;100456.91;4998589;28;1196;-45
2023/03/25 07:25:40;;;;;;;;;;;;;;;15.50;51.34;100446.50;4998250;28;1084;-46
2023/03/25 07:28:05;;;;;;;;;;;;;;;15.37;51.62;100459.63;4998401;28;1075;-48
2023/03/25 07:30:34;;;;;;;;;;;;;;;15.24;51.97;100443.75;4997003;28;1216;-41
2023/03/25 07:33:01;;;;;;;;;;;;;;;16.22;49.88;100447.25;4996945;28;920;-47
2023/03/25 07:35:27;;;;;;;;;;;;;;;17.23;47.24;100445.38;4997737;28;1117;-46
2023/03/25 07:37:52;;;;;;;;;;;;;;;16.19;49.93;100441.50;4998103;28;1902;-49
2023/03/25 07:40:18;;;;;;;;;;;;;;;15.83;50.82;100441.59;4998163;28;1192;-47
2023/03/25 07:42:43;;;;;;;;;;;;;;;15.63;51.19;100440.47;4996787;28;958;-41
2023/03/25 07:45:28;;;;;;;;;;;;;;;15.42;51.74;100449.78;4993317;28;1263;-47
2023/03/25 07:47:54;;;;;;;;;;;;;;;15.34;52.01;100448.44;4996675;28;1241;-44
2023/03/25 07:50:20;;;;;;;;;;;;;;;15.98;50.94;100447.03;4997717;28;1191;-45
2023/03/25 07:52:45;;;;;;;;;;;;;;;17.09;47.70;100451.50;4997111;28;1259;-48
2023/03/25 07:55:11;;;;;;;;;;;;;;;16.18;49.90;100446.16;4997146;28;1145;-45
2023/03/25 07:57:37;;;;;;;;;;;;;;;15.83;50.97;100452.53;4996668;28;1918;-43
2023/03/25 08:00:04;;;;;;;;;;;;;;;15.58;51.80;100448.69;4989477;28;1109;-45
2023/03/25 08:02:38;;;;;;;;;;;;;;;15.41;52.03;100438.00;4996059;28;1193;-44
2023/03/25 08:05:04;;;;;;;;;;;;;;;16.07;50.75;100434.41;4997213;28;1183;-43
2023/03/25 08:07:30;;;;;;;;;;;;;;;17.08;48.11;100455.38;4984886;28;1247;-42
2023/03/25 08:09:55;;;;;;;;;;;;;;;16.19;50.33;100438.75;4993894;28;936;-45
2023/03/25 08:12:21;;;;;;;;;;;;;;;15.89;51.14;100443.19;4980294;28;1286;-45
2023/03/25 08:14:46;;;;;;;;;;;;;;;15.58;51.67;100440.47;4980160;28;1314;-43
2023/03/25 08:17:12;;;;;;;;;;;;;;;15.36;51.98;100414.19;4984141;28;1200;-50
2023/03/25 08:19:37;;;;;;;;;;;;;;;15.35;52.40;100436.38;4997461;28;1910;-45
2023/03/25 08:22:03;;;;;;;;;;;;;;;15.26;52.38;100444.28;4996689;28;1113;-50
2023/03/25 08:24:31;;;;;;;;;;;;;;;16.83;48.76;100428.03;4997076;28;1124;-46
2023/03/25 08:26:56;;;;;;;;;;;;;;;16.48;49.65;100427.13;4996409;28;1176;-49
2023/03/25 08:29:23;;;;;;;;;;;;;;;15.89;51.27;100427.59;4997301;28;1041;-48
2023/03/25 08:31:51;;;;;;;;;;;;;;;15.63;52.02;100426.78;4997244;28;1196;-48
2023/03/25 08:34:16;;;;;;;;;;;;;;;15.48;52.25;100424.84;4997080;28;877;-47
2023/03/25 08:36:42;;;;;;;;;;;;;;;16.16;50.86;100425.59;4996748;28;1132;-45
2023/03/25 08:39:10;;;;;;;;;;;;;;;16.87;48.68;100426.34;4996824;28;1980;-48
2023/03/25 08:41:39;;;;;;;;;;;;;;;16.01;51.04;100423.72;4996569;28;1144;-44
2023/03/25 08:44:05;;;;;;;;;;;;;;;15.72;51.65;100424.28;4978283;28;1237;-47
2023/03/25 08:46:30;;;;;;;;;;;;;;;15.54;51.96;100423.78;4981755;28;942;-46
2023/03/25 08:48:56;;;;;;;;;;;;;;;15.35;52.66;100423.50;4995789;28;1290;-47
2023/03/25 08:51:21;;;;;;;;;;;;;;;16.33;50.26;100419.78;4989047;28;1192;-48
2023/03/25 08:53:47;;;;;;;;;;;;;;;17.16;48.27;100420.16;4991481;28;1092;-46
2023/03/25 08:56:12;;;;;;;;;;;;;;;16.23;50.48;100420.66;4997006;28;1077;-45
2023/03/25 08:58:38;;;;;;;;;;;;;;;15.83;51.39;100422.38;4996380;28;1969;-47
2023/03/25 09:01:03;;;;;;;;;;;;;;;15.70;51.74;100419.09;4996722;28;1178;-47
2023/03/25 09:03:29;;;;;;;;;;;;;;;15.49;52.17;100417.47;4996168;28;1012;-47
2023/03/25 09:05:54;;;;;;;;;;;;;;;15.39;52.29;100415.56;4995835;28;1196;-49
2023/03/25 09:08:20;;;;;;;;;;;;;;;16.67;49.74;100414.38;4996204;28;1045;-47
2023/03/25 09:10:45;;;;;;;;;;;;;;;16.92;48.71;100407.94;4995990;28;1040;-44
2023/03/25 09:13:11;;;;;;;;;;;;;;;16.11;50.88;100403.69;4996400;28;1136;-43
2023/03/25 09:15:36;;;;;;;;;;;;;;;15.81;51.57;100402.63;4996281;28;1064;-48
2023/03/25 09:18:02;;;;;;;;;;;;;;;15.62;51.98;100410.59;4996774;28;1907;-46
2023/03/25 09:20:27;;;;;;;;;;;;;;;15.55;52.41;100405.41;4996118;28;1028;-50
2023/03/25 09:22:53;;;;;;;;;;;;;;;17.03;48.64;100405.16;4995742;28;902;-49
2023/03/25 09:25:18;;;;;;;;;;;;;;;16.56;49.74;100404.56;4995870;28;1129;-44
2023/03/25 09:27:44;;;;;;;;;;;;;;;16.02;51.27;100392.44;4996414;28;1033;-48
2023/03/25 09:30:10;;;;;;;;;;;;;;;15.73;51.89;100396.59;4996608;28;1107;-42
2023/03/25 09:32:35;;;;;;;;;;;;;;;15.58;52.19;100396.63;4996133;28;1037;-48
2023/03/25 09:35:01;;;;;;;;;;;;;;;15.41;52.70;100399.66;4996222;28;956;-47
2023/03/25 09:37:26;;;;;;;;;;;;;;;15.92;51.58;100393.28;4995981;28;1906;-46
2023/03/25 09:39:52;;;;;;;;;;;;;;;17.25;48.35;100385.47;4996089;28;1136;-47
2023/03/25 09:42:32;;;;;;;;;;;;;;;16.33;50.57;100381.38;4996455;28;1101;-46
2023/03/25 09:45:13;;;;;;;;;;;;;;;15.89;51.50;100391.09;4994392;28;1120;-44
2023/03/25 09:47:40;;;;;;;;;;;;;;;15.64;52.29;100390.06;4990014;28;1060;-48
2023/03/25 09:50:09;;;;;;;;;;;;;;;15.44;52.65;100388.13;4996300;28;1132;-46
2023/03/25 09:52:40;;;;;;;;;;;;;;;15.74;52.19;100383.72;4995175;28;1053;-44
2023/03/25 09:55:07;;;;;;;;;;;;;;;17.24;48.53;100383.84;4994758;28;1014;-45
2023/03/25 09:57:36;;;;;;;;;;;;;;;16.43;50.37;100373.88;4994790;28;1902;-49
2023/03/25 10:00:02;;;;;;;;;;;;;;;15.92;51.51;100368.59;4995324;28;1137;-49
2023/03/25 10:02:33;;;;;;;;;;;;;;;15.72;52.20;100367.56;4996088;28;1106;-43
2023/03/25 10:05:07;;;;;;;;;;;;;;;15.53;52.51;100369.25;4995796;28;1184;-45
2023/03/25 10:07:45;;;;;;;;;;;;;;;15.40;52.62;100376.09;4995450;28;1113;-46
2023/03/25 10:10:31;;;;;;;;;;;;;;;16.60;50.05;100364.47;4995414;28;1125;-48
2023/03/25 10:13:11;;;;;;;;;;;;;;;16.55;50.13;100359.00;4985023;28;1427;-45
2023/03/25 10:15:47;;;;;;;;;;;;;;;15.91;51.56;100365.06;4996200;28;1132;-47
2023/03/25 10:18:28;;;;;;;;;;;;;;;15.66;52.46;100357.69;4999704;28;1965;-46
2023/03/25 10:21:00;;;;;;;;;;;;;;;15.46;52.86;100358.56;4995556;28;1125;-43
2023/03/25 10:23:40;;;;;;;;;;;;;;;15.39;52.78;100349.81;4997375;28;954;-47
2023/03/25 10:26:11;;;;;;;;;;;;;;;16.87;49.69;100336.56;4998977;28;1141;-48
2023/03/25 10:28:42;;;;;;;;;;;;;;;16.82;49.48;100333.84;4998034;28;1212;-44
2023/03/25 10:31:10;;;;;;;;;;;;;;;16.04;51.23;100330.72;4998159;28;1046;-43
2023/03/25 10:33:36;;;;;;;;;;;;;;;15.74;52.28;100326.97;4997949;28;1014;-48
2023/03/25 10:36:03;;;;;;;;;;;;;;;15.58;52.47;100322.63;4997917;28;1069;-44
2023/03/25 10:38:29;;;;;;;;;;;;;;;15.46;52.66;100314.72;4999282;28;1918;-47
2023/03/25 10:41:13;;;;;;;;;;;;;;;15.36;52.80;100312.81;4982962;28;1185;-46
2023/03/25 10:43:39;;;;;;;;;;;;;;;16.84;49.71;100308.84;4983693;28;1118;-44
2023/03/25 10:46:07;;;;;;;;;;;;;;;16.79;49.51;100308.88;4993814;28;1226;-46
2023/03/25 10:48:33;;;;;;;;;;;;;;;16.07;51.56;100297.28;4998005;28;1113;-46
2023/03/25 10:51:08;;;;;;;;;;;;;;;15.72;52.39;100304.50;4998636;28;1160;-47
2023/03/25 10:53:34;;;;;;;;;;;;;;;15.60;52.50;100293.03;4993174;28;1261;-47
2023/03/25 10:56:19;;;;;;;;;;;;;;;15.48;52.80;100300.75;4990585;28;1030;-47
2023/03/25 10:58:45;;;;;;;;;;;;;;;16.43;51.07;100288.81;4997516;28;1902;-44
2023/03/25 11:01:11;;;;;;;;;;;;;;;17.25;48.32;100281.03;4997156;28;1052;-49
2023/03/25 11:03:37;;;;;;;;;;;;;;;16.25;50.98;100276.56;4982795;28;1008;-48
2023/03/25 11:06:02;;;;;;;;;;;;;;;15.84;52.21;100279.53;5025731;28;1207;-46
2023/03/25 11:08:28;;;;;;;;;;;;;;;15.69;52.34;100274.09;4998814;28;1149;-46
2023/03/25 11:10:58;;;;;;;;;;;;;;;15.52;52.81;100280.72;4996494;28;1133;-46
2023/03/25 11:13:24;;;;;;;;;;;;;;;15.40;52.91;100272.81;4994557;28;1111;-46
2023/03/25 11:15:51;;;;;;;;;;;;;;;16.24;51.58;100274.97;4989655;28;1029;-46
2023/03/25 11:18:21;;;;;;;;;;;;;;;17.35;48.52;100263.63;4998945;28;1980;-48
2023/03/25 11:20:51;;;;;;;;;;;;;;;16.28;51.03;100258.72;4998605;28;1085;-48
2023/03/25 11:23:35;;;;;;;;;;;;;;;15.88;52.03;100261.44;4998021;28;1056;-44
2023/03/25 11:26:02;;;;;;;;;;;;;;;15.72;52.56;100249.69;4998720;28;1123;-46
2023/03/25 11:28:40;;;;;;;;;;;;;;;15.52;52.82;100252.50;4996094;28;1165;-49
2023/03/25 11:31:07;;;;;;;;;;;;;;;15.37;53.34;100256.91;4996975;28;1071;-47
2023/03/25 11:33:35;;;;;;;;;;;;;;;16.68;50.51;100259.56;4998057;28;1188;-48
2023/03/25 11:36:21;;;;;;;;;;;;;;;17.01;49.13;100248.88;4998111;28;955;-48
2023/03/25 11:38:49;;;;;;;;;;;;;;;16.02;51.90;100244.34;4998042;28;1906;-46
2023/03/25 11:41:15;;;;;;;;;;;;;;;15.78;52.22;100241.44;4998436;28;1124;-45
2023/03/25 11:43:41;;;;;;;;;;;;;;;15.58;52.88;100234.94;4996811;28;1208;-46
2023/03/25 11:46:07;;;;;;;;;;;;;;;15.43;53.17;100229.50;4997344;28;1205;-48
2023/03/25 11:48:34;;;;;;;;;;;;;;;16.02;52.19;100227.88;4996337;28;1133;-49
2023/03/25 11:51:00;;;;;;;;;;;;;;;17.24;49.04;100218.97;4998182;28;989;-43
2023/03/25 11:53:26;;;;;;;;;;;;;;;16.21;51.25;100219.84;4997832;28;985;-49
2023/03/25 11:55:56;;;;;;;;;;;;;;;15.85;52.37;100218.13;4996291;28;1038;-47
2023/03/25 11:58:26;;;;;;;;;;;;;;;15.67;52.57;100221.47;4997354;28;1910;-45
2023/03/25 12:00:58;;;;;;;;;;;;;;;15.52;52.82;100216.88;4997946;28;1037;-46
2023/03/25 12:03:27;;;;;;;;;;;;;;;15.69;52.65;100219.28;4997197;28;1100;-49
2023/03/25 12:05:56;;;;;;;;;;;;;;;17.19;49.23;100210.78;4997939;28;1132;-49
2023/03/25 12:08:22;;;;;;;;;;;;;;;16.37;51.19;100204.09;4996960;28;1212;-46
2023/03/25 12:10:50;;;;;;;;;;;;;;;15.90;52.04;100204.38;4995802;28;1145;-44
2023/03/25 12:13:19;;;;;;;;;;;;;;;15.67;52.88;100221.47;4994778;28;854;-43
2023/03/25 12:15:48;;;;;;;;;;;;;;;15.55;52.92;100216.31;5020274;28;984;-46
2023/03/25 12:18:22;;;;;;;;;;;;;;;16.38;51.50;100214.78;4997479;28;1962;-47
2023/03/25 12:20:50;;;;;;;;;;;;;;;16.92;49.62;100215.72;4996264;28;1121;-47
2023/03/25 12:23:34;;;;;;;;;;;;;;;16.05;51.81;100222.66;4995890;28;1121;-48
2023/03/25 12:26:03;;;;;;;;;;;;;;;15.80;52.49;100215.41;4997306;28;1025;-46
2023/03/25 12:28:31;;;;;;;;;;;;;;;15.55;52.88;100208.91;4995805;28;1142;-49
2023/03/25 12:31:16;;;;;;;;;;;;;;;15.45;53.12;100213.63;4997666;28;1080;-45
2023/03/25 12:33:41;;;;;;;;;;;;;;;15.83;52.48;100203.06;4996380;28;1029;-44
2023/03/25 12:36:10;;;;;;;;;;;;;;;17.14;49.43;100197.09;4997346;28;980;-48
2023/03/25 12:38:52;;;;;;;;;;;;;;;16.17;51.49;100202.31;4996205;28;1894;-47
2023/03/25 12:41:22;;;;;;;;;;;;;;;15.73;52.83;100195.69;4995949;28;943;-47
2023/03/25 12:43:53;;;;;;;;;;;;;;;15.55;52.85;100189.72;4995452;28;1112;-44
2023/03/25 12:46:22;;;;;;;;;;;;;;;15.44;53.26;100179.09;4995629;28;1092;-47
2023/03/25 12:48:47;;;;;;;;;;;;;;;16.70;50.63;100187.88;4995975;28;1049;-44
2023/03/25 12:51:16;;;;;;;;;;;;;;;16.67;50.35;100186.53;4996845;28;1108;-46
2023/03/25 12:54:08;;;;;;;;;;;;;;;15.98;52.18;100183.78;4996640;28;1117;-45